createdAt,value
2019-04-20T00:01:20.006Z,98049.70
2019-04-20T00:03:46.777Z,98051.80
2019-04-20T00:06:19.495Z,98045.22
2019-04-20T00:08:58.854Z,98047.27
2019-04-20T00:11:28.332Z,98048.11
2019-04-20T00:14:03.834Z,98050.52
2019-04-20T00:16:31.627Z,98044.52
2019-04-20T00:19:05.445Z,98045.81
2019-04-20T00:21:58.622Z,98042.01
2019-04-20T00:24:37.573Z,98043.73
2019-04-20T00:27:32.934Z,98038.08
2019-04-20T00:29:58.695Z,98042.42
2019-04-20T00:32:30.013Z,98037.73
2019-04-20T00:34:50.661Z,98029.77
2019-04-20T00:37:23.352Z,98029.24
2019-04-20T00:39:55.994Z,98026.59
2019-04-20T00:42:33.976Z,98019.45
2019-04-20T00:45:09.852Z,98020.42
2019-04-20T00:47:45.492Z,98027.84
2019-04-20T00:50:25.711Z,98027.44
2019-04-20T00:52:55.767Z,98023.75
2019-04-20T00:55:14.920Z,98023.00
2019-04-20T00:57:54.874Z,98020.88
2019-04-20T01:00:37.206Z,98023.03
2019-04-20T01:03:09.847Z,98018.52
2019-04-20T01:06:02.244Z,98019.40
2019-04-20T01:08:21.364Z,98025.39
2019-04-20T01:10:56.471Z,98021.86
2019-04-20T01:13:28.098Z,98018.41
2019-04-20T01:16:07.722Z,98025.53
2019-04-20T01:18:32.604Z,98016.00
2019-04-20T01:21:06.808Z,98022.95
2019-04-20T01:23:43.779Z,98021.16
2019-04-20T01:26:14.482Z,98020.78
2019-04-20T01:28:54.176Z,98020.76
2019-04-20T01:31:27.192Z,98016.70
2019-04-20T01:33:58.897Z,98020.96
2019-04-20T01:36:43.027Z,98022.70
2019-04-20T01:39:09.402Z,98019.30
2019-04-20T01:41:30.731Z,98021.98
2019-04-20T01:44:02.708Z,98021.42
2019-04-20T01:46:39.152Z,98021.71
2019-04-20T01:49:14.797Z,98019.33
2019-04-20T01:51:52.537Z,98017.33
2019-04-20T01:54:33.927Z,98023.06
2019-04-20T01:57:04.699Z,98021.73
2019-04-20T01:59:53.386Z,98027.48
2019-04-20T02:02:24.905Z,98022.62
2019-04-20T02:05:08.107Z,98017.70
2019-04-20T02:07:38.974Z,98019.17
2019-04-20T02:10:11.364Z,98023.13
2019-04-20T02:12:42.533Z,98025.80
2019-04-20T02:15:23.140Z,98018.61
2019-04-20T02:18:03.669Z,98027.73
2019-04-20T02:20:39.718Z,98026.59
2019-04-20T02:23:10.700Z,98023.48
2019-04-20T02:25:29.063Z,98020.38
2019-04-20T02:28:18.950Z,98019.26
2019-04-20T02:31:23.119Z,98020.63
2019-04-20T02:33:43.280Z,98021.36
2019-04-20T02:41:50.535Z,98016.37
2019-04-20T02:46:51.039Z,98019.59
2019-04-20T02:51:46.696Z,98018.63
2019-04-20T02:54:18.513Z,98020.16
2019-04-20T02:57:00.659Z,98021.20
2019-04-20T03:01:45.666Z,98017.63
2019-04-20T03:04:04.870Z,98016.67
2019-04-20T03:06:53.537Z,98018.14
2019-04-20T03:09:31.507Z,98014.09
2019-04-20T03:12:06.163Z,98021.45
2019-04-20T03:14:31.918Z,98021.17
2019-04-20T03:17:18.201Z,98021.11
2019-04-20T03:19:38.665Z,98021.28
2019-04-20T03:22:23.631Z,98016.44
2019-04-20T03:24:53.928Z,98025.50
2019-04-20T03:27:33.061Z,98021.45
2019-04-20T03:31:15.719Z,98015.47
2019-04-20T03:33:30.929Z,98022.00
2019-04-20T03:35:43.601Z,98019.69
2019-04-20T03:38:10.680Z,98019.77
2019-04-20T03:40:37.573Z,98019.53
2019-04-20T03:42:54.993Z,98013.86
2019-04-20T03:45:31.488Z,98012.63
2019-04-20T03:48:09.069Z,98011.99
2019-04-20T03:50:50.436Z,98020.25
2019-04-20T03:53:31.301Z,98010.38
2019-04-20T03:56:29.779Z,98007.73
2019-04-20T03:59:17.713Z,98013.61
2019-04-20T04:02:25.464Z,98017.84
2019-04-20T04:05:01.790Z,98013.61
2019-04-20T04:07:21.859Z,98014.92
2019-04-20T04:10:02.470Z,98011.69
2019-04-20T04:13:11.770Z,98008.12
2019-04-20T04:15:50.056Z,98014.03
2019-04-20T04:18:27.761Z,98013.16
2019-04-20T04:21:03.050Z,98011.34
2019-04-20T04:23:47.119Z,98013.87
2019-04-20T04:26:17.313Z,98015.98
2019-04-20T04:28:49.042Z,98014.99
2019-04-20T04:31:27.847Z,98013.87
2019-04-20T04:33:59.332Z,98012.84
2019-04-20T04:36:25.680Z,98004.27
2019-04-20T04:39:19.252Z,98013.12
2019-04-20T04:41:36.720Z,98015.44
2019-04-20T04:44:09.678Z,98014.91
2019-04-20T04:46:26.798Z,98023.05
2019-04-20T04:49:08.840Z,98023.75
2019-04-20T04:51:42.606Z,98023.22
2019-04-20T04:54:16.345Z,98025.17
2019-04-20T04:56:39.748Z,98025.27
2019-04-20T04:59:10.968Z,98032.10
2019-04-20T05:01:47.807Z,98023.21
2019-04-20T05:04:57.888Z,98027.56
2019-04-20T05:07:03.851Z,98037.52
2019-04-20T05:09:23.824Z,98031.47
2019-04-20T05:11:59.972Z,98040.31
2019-04-20T05:14:41.859Z,98035.63
2019-04-20T05:17:15.282Z,98037.66
2019-04-20T05:19:52.825Z,98035.88
2019-04-20T05:22:34.755Z,98036.13
2019-04-20T05:25:12.957Z,98045.74
2019-04-20T05:27:51.302Z,98042.55
2019-04-20T05:30:08.223Z,98044.42
2019-04-20T05:32:52.432Z,98043.41
2019-04-20T05:35:31.082Z,98042.72
2019-04-20T05:38:12.035Z,98042.94
2019-04-20T05:40:38.976Z,98040.98
2019-04-20T05:43:44.275Z,98037.33
2019-04-20T05:46:23.540Z,98041.00
2019-04-20T05:48:57.934Z,98036.91
2019-04-20T05:51:29.546Z,98044.84
2019-04-20T05:54:02.558Z,98047.55
2019-04-20T05:56:35.813Z,98046.73
2019-04-20T05:59:07.555Z,98045.03
2019-04-20T06:01:47.582Z,98044.63
2019-04-20T06:04:10.113Z,98048.13
2019-04-20T06:06:49.597Z,98044.28
2019-04-20T06:09:25.152Z,98045.14
2019-04-20T06:12:07.694Z,98042.42
2019-04-20T06:14:44.232Z,98042.86
2019-04-20T06:17:26.465Z,98048.87
2019-04-20T06:20:06.455Z,98047.45
2019-04-20T06:22:40.760Z,98049.11
2019-04-20T06:25:31.843Z,98048.64
2019-04-20T06:27:52.819Z,98051.94
2019-04-20T06:30:21.677Z,98052.15
2019-04-20T06:34:07.570Z,98048.67
2019-04-20T06:36:29.462Z,98056.86
2019-04-20T06:39:02.026Z,98057.66
2019-04-20T06:41:45.286Z,98062.27
2019-04-20T06:44:08.644Z,98062.84
2019-04-20T06:46:50.541Z,98072.09
2019-04-20T06:49:18.455Z,98062.75
2019-04-20T06:52:15.355Z,98070.84
2019-04-20T06:55:03.349Z,98062.24
2019-04-20T06:57:54.172Z,98069.07
2019-04-20T07:00:15.460Z,98067.35
2019-04-20T07:02:57.829Z,98065.19
2019-04-20T07:08:07.021Z,98068.25
2019-04-20T07:10:31.333Z,98066.89
2019-04-20T07:13:01.461Z,98066.34
2019-04-20T07:15:41.543Z,98066.45
2019-04-20T07:18:26.558Z,98065.42
2019-04-20T07:21:00.509Z,98072.13
2019-04-20T07:23:37.162Z,98066.59
2019-04-20T07:26:13.838Z,98065.77
2019-04-20T07:28:45.073Z,98061.66
2019-04-20T07:31:14.141Z,98067.38
2019-04-20T07:33:55.150Z,98071.53
2019-04-20T07:36:24.472Z,98070.58
2019-04-20T07:39:05.573Z,98067.51
2019-04-20T07:41:42.906Z,98067.88
2019-04-20T07:44:10.583Z,98063.19
2019-04-20T07:46:47.044Z,98069.73
2019-04-20T07:49:12.778Z,98067.69
2019-04-20T07:51:29.670Z,98065.72
2019-04-20T07:54:24.576Z,98065.60
2019-04-20T07:56:47.675Z,98065.55
2019-04-20T07:59:13.963Z,98064.37
2019-04-20T08:02:15.745Z,98065.88
2019-04-20T08:04:52.386Z,98073.77
2019-04-20T08:07:11.156Z,98073.06
2019-04-20T08:09:49.792Z,98070.41
2019-04-20T08:12:51.729Z,98075.97
2019-04-20T08:15:32.244Z,98074.55
2019-04-20T08:18:07.640Z,98069.20
2019-04-20T08:20:29.867Z,98074.91
2019-04-20T08:23:12.334Z,98065.88
2019-04-20T08:25:27.730Z,98069.22
2019-04-20T08:28:13.541Z,98066.12
2019-04-20T08:31:21.713Z,98069.89
2019-04-20T08:34:15.595Z,98065.20
2019-04-20T08:36:44.204Z,98052.46
2019-04-20T08:39:24.130Z,98059.06
2019-04-20T08:41:45.277Z,98057.20
2019-04-20T08:44:39.668Z,98053.50
2019-04-20T08:47:00.246Z,98052.67
2019-04-20T08:49:29.544Z,98062.05
2019-04-20T08:52:05.847Z,98057.81
2019-04-20T08:54:26.058Z,98049.95
2019-04-20T08:56:51.801Z,98048.28
2019-04-20T08:59:18.818Z,98047.05
2019-04-20T09:01:51.109Z,98046.00
2019-04-20T09:04:36.041Z,98038.30
2019-04-20T09:07:05.571Z,98045.81
2019-04-20T09:09:49.130Z,98041.34
2019-04-20T09:12:19.143Z,98043.55
2019-04-20T09:14:38.447Z,98043.22
2019-04-20T09:17:26.412Z,98037.03
2019-04-20T09:19:59.935Z,98042.97
2019-04-20T09:22:45.713Z,98036.84
2019-04-20T09:28:11.575Z,98030.16
2019-04-20T09:30:42.887Z,98035.02
2019-04-20T09:33:43.426Z,98033.27
2019-04-20T09:36:18.211Z,98033.97
2019-04-20T09:39:08.610Z,98035.98
2019-04-20T09:42:00.710Z,98034.52
2019-04-20T09:44:30.372Z,98032.73
2019-04-20T09:47:00.445Z,98032.33
2019-04-20T09:49:42.487Z,98020.59
2019-04-20T09:52:16.906Z,98017.73
2019-04-20T09:54:57.176Z,98018.09
2019-04-20T09:57:30.918Z,98017.36
2019-04-20T10:00:04.276Z,98014.63
2019-04-20T10:02:24.054Z,98017.72
2019-04-20T10:04:51.471Z,98013.84
2019-04-20T10:07:26.214Z,98012.05
2019-04-20T10:09:57.781Z,98006.13
2019-04-20T10:12:29.449Z,98000.35
2019-04-20T10:15:04.154Z,98010.07
2019-04-20T10:17:35.748Z,98005.05
2019-04-20T10:20:11.576Z,98001.64
2019-04-20T10:22:42.302Z,98003.59
2019-04-20T10:25:15.150Z,98001.31
2019-04-20T10:27:47.478Z,98006.36
2019-04-20T10:30:20.678Z,98005.58
2019-04-20T10:32:53.953Z,98003.28
2019-04-20T10:35:25.541Z,97998.75
2019-04-20T10:38:15.688Z,98004.80
2019-04-20T10:40:59.778Z,98003.17
2019-04-20T10:43:20.158Z,97992.92
2019-04-20T10:45:52.907Z,97995.28
2019-04-20T10:48:24.461Z,97994.27
2019-04-20T10:50:56.907Z,97986.86
2019-04-20T10:53:30.001Z,97987.42
2019-04-20T10:56:01.555Z,97987.00
2019-04-20T10:58:33.759Z,97986.11
2019-04-20T11:01:07.362Z,97978.18
2019-04-20T11:03:40.733Z,97989.06
2019-04-20T11:06:12.211Z,97983.25
2019-04-20T11:08:44.590Z,97981.06
2019-04-20T11:11:23.829Z,97984.31
2019-04-20T11:13:49.471Z,97986.67
2019-04-20T11:16:22.050Z,97981.33
2019-04-20T11:18:53.667Z,97977.73
2019-04-20T11:21:26.239Z,97973.81
2019-04-20T11:23:58.832Z,97974.52
2019-04-20T11:26:31.760Z,97971.95
2019-04-20T11:29:04.186Z,97967.41
2019-04-20T11:31:41.631Z,97965.95
2019-04-20T11:34:10.124Z,97959.44
2019-04-20T11:36:41.639Z,97953.30
2019-04-20T11:39:14.768Z,97958.47
2019-04-20T11:41:47.407Z,97957.75
2019-04-20T11:44:20.011Z,97950.20
2019-04-20T11:46:52.549Z,97941.67
2019-04-20T11:49:23.992Z,97939.14
2019-04-20T11:51:55.583Z,97940.02
2019-04-20T11:54:28.310Z,97943.44
2019-04-20T11:56:59.775Z,97936.55
2019-04-20T11:59:32.983Z,97949.81
2019-04-20T12:02:27.962Z,97939.19
2019-04-20T12:05:10.240Z,97941.37
2019-04-20T12:07:49.097Z,97934.22
2019-04-20T12:10:23.997Z,97929.62
2019-04-20T12:12:55.698Z,97921.31
2019-04-20T12:15:28.927Z,97923.11
2019-04-20T12:18:01.961Z,97911.70
2019-04-20T12:20:34.560Z,97908.89
2019-04-20T12:23:06.543Z,97913.13
2019-04-20T12:25:39.679Z,97907.27
2019-04-20T12:28:11.686Z,97914.21
2019-04-20T12:30:43.884Z,97905.31
2019-04-20T12:33:15.621Z,97904.14
2019-04-20T12:35:48.017Z,97906.27
2019-04-20T12:38:19.519Z,97899.88
2019-04-20T12:40:52.379Z,97902.11
2019-04-20T12:43:25.423Z,97898.58
2019-04-20T12:45:57.965Z,97898.28
2019-04-20T12:48:29.723Z,97884.74
2019-04-20T12:51:01.591Z,97892.30
2019-04-20T12:53:33.066Z,97894.25
2019-04-20T12:56:04.520Z,97885.25
2019-04-20T12:58:36.624Z,97873.50
2019-04-20T13:01:08.088Z,97878.99
2019-04-20T13:03:39.724Z,97877.73
2019-04-20T13:06:12.091Z,97870.96
2019-04-20T13:08:51.402Z,97878.34
2019-04-20T13:11:24.773Z,97876.54
2019-04-20T13:15:16.375Z,97870.71
2019-04-20T13:17:50.670Z,97867.31
2019-04-20T13:20:21.657Z,97871.22
2019-04-20T13:22:53.130Z,97865.09
2019-04-20T13:25:26.305Z,97857.19
2019-04-20T13:27:58.873Z,97859.11
2019-04-20T13:30:30.462Z,97858.38
2019-04-20T13:33:02.133Z,97851.48
2019-04-20T13:35:34.324Z,97852.36
2019-04-20T13:38:05.885Z,97851.27
2019-04-20T13:40:37.761Z,97850.23
2019-04-20T13:43:09.946Z,97844.03
2019-04-20T13:45:42.706Z,97841.53
2019-04-20T13:48:15.114Z,97842.64
2019-04-20T13:50:46.696Z,97829.68
2019-04-20T13:53:19.178Z,97831.02
2019-04-20T13:55:51.912Z,97828.27
2019-04-20T13:58:41.473Z,97817.92
2019-04-20T14:01:21.178Z,97799.77
2019-04-20T14:04:05.267Z,97817.80
2019-04-20T14:06:37.318Z,97818.78
2019-04-20T14:09:10.015Z,97813.42
2019-04-20T14:11:43.322Z,97806.78
2019-04-20T14:14:15.149Z,97811.80
2019-04-20T14:16:47.519Z,97800.41
2019-04-20T14:19:19.048Z,97809.53
2019-04-20T14:21:50.711Z,97798.59
2019-04-20T14:24:22.127Z,97798.80
2019-04-20T14:26:54.813Z,97799.09
2019-04-20T14:29:27.293Z,97795.09
2019-04-20T14:32:01.550Z,97789.09
2019-04-20T14:34:33.106Z,97782.52
2019-04-20T14:37:04.815Z,97781.77
2019-04-20T14:39:36.394Z,97781.25
2019-04-20T14:42:07.888Z,97776.52
2019-04-20T14:44:39.560Z,97769.41
2019-04-20T14:47:11.887Z,97770.64
2019-04-20T14:49:43.522Z,97763.15
2019-04-20T14:52:15.764Z,97758.81
2019-04-20T14:54:47.704Z,97759.16
2019-04-20T14:57:19.299Z,97756.27
2019-04-20T14:59:57.231Z,97751.58
2019-04-20T15:02:30.562Z,97747.27
2019-04-20T15:05:03.251Z,97743.39
2019-04-20T15:07:36.323Z,97749.56
2019-04-20T15:10:09.021Z,97742.25
2019-04-20T15:12:49.115Z,97742.44
2019-04-20T15:15:14.695Z,97731.74
2019-04-20T15:17:51.370Z,97739.70
2019-04-20T15:20:39.514Z,97733.53
2019-04-20T15:23:21.599Z,97730.36
2019-04-20T15:25:54.721Z,97729.91
2019-04-20T15:28:26.274Z,97728.64
2019-04-20T15:30:58.324Z,97724.12
2019-04-20T15:33:30.814Z,97725.30
2019-04-20T15:36:02.268Z,97713.60
2019-04-20T15:38:33.545Z,97716.25
2019-04-20T15:41:06.936Z,97712.98
2019-04-20T15:43:39.162Z,97712.52
2019-04-20T15:46:10.988Z,97716.95
2019-04-20T15:48:42.354Z,97711.16
2019-04-20T15:51:17.098Z,97706.95
2019-04-20T15:53:49.531Z,97708.38
2019-04-20T15:56:20.938Z,97709.78
2019-04-20T15:58:52.828Z,97707.34
2019-04-20T16:01:28.306Z,97708.50
2019-04-20T16:04:21.657Z,97711.05
2019-04-20T16:06:47.535Z,97704.71
2019-04-20T16:09:19.948Z,97704.88
2019-04-20T16:11:52.979Z,97702.45
2019-04-20T16:14:25.685Z,97704.72
2019-04-20T16:16:58.274Z,97705.41
2019-04-20T16:19:41.776Z,97698.47
2019-04-20T16:22:03.773Z,97696.82
2019-04-20T16:24:38.510Z,97682.44
2019-04-20T16:27:35.909Z,97690.23
2019-04-20T16:30:09.661Z,97685.88
2019-04-20T16:32:42.724Z,97694.59
2019-04-20T16:35:14.424Z,97687.19
2019-04-20T16:37:46.517Z,97682.39
2019-04-20T16:40:18.092Z,97679.97
2019-04-20T16:42:50.254Z,97680.33
2019-04-20T16:45:21.645Z,97681.35
2019-04-20T16:47:54.412Z,97676.43
2019-04-20T16:50:26.906Z,97668.45
2019-04-20T16:52:59.091Z,97673.69
2019-04-20T16:55:30.618Z,97665.70
2019-04-20T16:58:01.875Z,97665.26
2019-04-20T17:00:33.556Z,97657.22
2019-04-20T17:03:05.002Z,97658.81
2019-04-20T17:05:37.040Z,97658.75
2019-04-20T17:08:08.950Z,97658.91
2019-04-20T17:10:41.026Z,97655.03
2019-04-20T17:13:13.600Z,97656.75
2019-04-20T17:15:45.788Z,97659.74
2019-04-20T17:18:17.031Z,97659.09
2019-04-20T17:20:48.465Z,97666.45
2019-04-20T17:23:19.824Z,97653.92
2019-04-20T17:25:52.304Z,97652.16
2019-04-20T17:28:38.645Z,97650.16
2019-04-20T17:31:43.403Z,97655.84
2019-04-20T17:34:36.120Z,97657.67
2019-04-20T17:36:50.599Z,97656.97
2019-04-20T17:39:31.105Z,97657.38
2019-04-20T17:42:12.584Z,97659.05
2019-04-20T17:44:44.823Z,97656.20
2019-04-20T17:47:24.894Z,97659.53
2019-04-20T17:49:57.684Z,97662.78
2019-04-20T17:52:36.407Z,97660.52
2019-04-20T17:54:49.395Z,97664.02
2019-04-20T17:57:21.494Z,97663.09
2019-04-20T18:00:02.142Z,97659.16
2019-04-20T18:02:58.556Z,97669.73
2019-04-20T18:05:51.686Z,97670.63
2019-04-20T18:08:26.342Z,97671.18
2019-04-20T18:10:52.018Z,97668.29
2019-04-20T18:13:18.494Z,97672.80
2019-04-20T18:16:04.994Z,97672.82
2019-04-20T18:18:49.495Z,97673.78
2019-04-20T18:21:28.648Z,97672.64
2019-04-20T18:24:00.545Z,97668.38
2019-04-20T18:26:54.792Z,97664.59
2019-04-20T18:29:26.316Z,97670.69
2019-04-20T18:31:45.152Z,97672.05
2019-04-20T18:34:34.343Z,97674.69
2019-04-20T18:37:10.496Z,97674.69
2019-04-20T18:39:43.822Z,97677.29
2019-04-20T18:42:18.632Z,97682.14
2019-04-20T18:45:05.985Z,97678.23
2019-04-20T18:47:39.200Z,97682.64
2019-04-20T18:50:04.487Z,97684.09
2019-04-20T18:52:25.145Z,97690.19
2019-04-20T18:54:57.587Z,97687.13
2019-04-20T18:57:31.173Z,97686.19
2019-04-20T19:00:02.916Z,97699.98
2019-04-20T19:02:41.768Z,97696.53
2019-04-20T19:05:11.505Z,97698.69
2019-04-20T19:07:52.589Z,97702.13
2019-04-20T19:10:24.774Z,97701.25
2019-04-20T19:13:00.939Z,97698.66
2019-04-20T19:16:00.244Z,97705.91
2019-04-20T19:19:00.496Z,97704.97
2019-04-20T19:21:21.506Z,97709.61
2019-04-20T19:23:59.829Z,97710.40
2019-04-20T19:26:27.270Z,97715.52
2019-04-20T19:29:11.082Z,97708.56
2019-04-20T19:31:46.087Z,97707.59
2019-04-20T19:34:26.043Z,97709.66
2019-04-20T19:36:47.714Z,97715.55
2019-04-20T19:39:26.229Z,97713.47
2019-04-20T19:41:52.644Z,97709.50
2019-04-20T19:44:27.228Z,97707.13
2019-04-20T19:47:11.186Z,97707.55
2019-04-20T19:49:34.172Z,97710.38
2019-04-20T19:52:25.166Z,97707.63
2019-04-20T19:54:50.771Z,97708.33
2019-04-20T19:57:24.344Z,97715.34
2019-04-20T19:59:41.327Z,97718.63
2019-04-20T20:02:11.779Z,97716.83
2019-04-20T20:04:49.301Z,97711.78
2019-04-20T20:07:25.722Z,97719.80
2019-04-20T20:09:56.597Z,97722.73
2019-04-20T20:12:23.381Z,97721.25
2019-04-20T20:14:57.412Z,97717.26
2019-04-20T20:17:48.475Z,97720.61
2019-04-20T20:20:25.110Z,97717.04
2019-04-20T20:22:41.341Z,97714.33
2019-04-20T20:25:09.377Z,97721.55
2019-04-20T20:27:49.187Z,97723.68
2019-04-20T20:30:22.729Z,97723.42
2019-04-20T20:33:04.502Z,97728.59
2019-04-20T20:35:23.544Z,97729.87
2019-04-20T20:37:57.835Z,97727.81
2019-04-20T20:40:34.311Z,97729.64
2019-04-20T20:43:10.768Z,97730.12
2019-04-20T20:45:39.611Z,97727.66
2019-04-20T20:48:28.537Z,97734.94
2019-04-20T20:51:00.159Z,97732.36
2019-04-20T20:53:23.010Z,97730.89
2019-04-20T20:55:53.338Z,97733.94
2019-04-20T20:58:33.592Z,97731.50
2019-04-20T21:01:03.654Z,97727.44
2019-04-20T21:03:34.656Z,97729.78
2019-04-20T21:06:00.734Z,97726.53
2019-04-20T21:08:36.209Z,97725.73
2019-04-20T21:11:13.208Z,97726.73
2019-04-20T21:13:43.335Z,97716.61
2019-04-20T21:16:17.327Z,97718.59
2019-04-20T21:19:00.794Z,97722.59
2019-04-20T21:21:33.552Z,97717.91
2019-04-20T21:24:00.346Z,97720.13
2019-04-20T21:26:35.028Z,97722.66
2019-04-20T21:29:01.522Z,97725.59
2019-04-20T21:31:34.309Z,97728.52
2019-04-20T21:34:09.745Z,97723.34
2019-04-20T21:36:38.989Z,97719.89
2019-04-20T21:39:20.324Z,97730.75
2019-04-20T21:41:49.747Z,97723.90
2019-04-20T21:44:25.047Z,97725.18
2019-04-20T21:46:54.698Z,97728.22
2019-04-20T21:49:38.779Z,97732.98
2019-04-20T21:52:03.204Z,97722.11
2019-04-20T21:54:31.976Z,97720.77
2019-04-20T21:57:07.834Z,97731.85
2019-04-20T21:59:43.207Z,97724.22
2019-04-20T22:02:18.598Z,97727.69
2019-04-20T22:04:43.468Z,97729.11
2019-04-20T22:07:16.406Z,97728.84
2019-04-20T22:09:51.636Z,97726.96
2019-04-20T22:12:21.188Z,97732.29
2019-04-20T22:15:00.034Z,97727.55
2019-04-20T22:17:30.620Z,97721.71
2019-04-20T22:20:12.000Z,97719.75
2019-04-20T22:22:50.937Z,97722.23
2019-04-20T22:25:28.366Z,97713.95
2019-04-20T22:27:40.536Z,97718.55
2019-04-20T22:30:14.518Z,97726.55
2019-04-20T22:32:48.405Z,97719.86
2019-04-20T22:35:19.714Z,97714.52
2019-04-20T22:38:06.331Z,97720.02
2019-04-20T22:40:33.933Z,97708.00
2019-04-20T22:43:06.435Z,97712.27
2019-04-20T22:45:41.151Z,97705.62
2019-04-20T22:48:14.524Z,97708.47
2019-04-20T22:51:03.583Z,97708.83
2019-04-20T22:53:31.080Z,97703.94
2019-04-20T22:56:16.787Z,97702.14
2019-04-20T22:58:38.595Z,97697.25
2019-04-20T23:01:04.298Z,97695.71
2019-04-20T23:03:30.993Z,97692.19
2019-04-20T23:06:02.847Z,97690.33
2019-04-20T23:08:35.047Z,97684.27
2019-04-20T23:11:14.835Z,97685.45
2019-04-20T23:13:43.600Z,97680.02
2019-04-20T23:16:13.539Z,97674.86
2019-04-20T23:18:44.817Z,97675.41
2019-04-20T23:21:17.594Z,97679.39
2019-04-20T23:23:53.682Z,97668.31
2019-04-20T23:26:28.062Z,97670.17
2019-04-20T23:28:58.911Z,97662.43
2019-04-20T23:31:29.035Z,97670.75
2019-04-20T23:34:09.181Z,97662.19
2019-04-20T23:36:40.334Z,97656.10
2019-04-20T23:39:10.683Z,97658.66
2019-04-20T23:41:51.713Z,97661.13
2019-04-20T23:44:23.123Z,97657.48
2019-04-20T23:47:08.839Z,97654.41
2019-04-20T23:49:54.422Z,97649.12
2019-04-20T23:52:35.510Z,97640.08
2019-04-20T23:54:51.372Z,97637.84
2019-04-20T23:57:17.669Z,97637.05
2019-04-20T23:59:50.262Z,97631.89
